Time;durP1;ratioP1;P1;durP2;ratioP2;P2;SDS_P1;SDS_P2;PMS_P1;PMS_P2;Temp;Humidity;BMP_temperature;BMP_pressure;BME280_temperature;BME280_humidity;BME280_pressure;Samples;Min_cycle;Max_cycle;Signal;HPM_P1;HPM_P2
2022/08/13 00:00:24;;;;;;;;;12.33;12.33;;;;;-145.45;100.00;57426.63;5091506;27;45280;-72
2022/08/13 00:02:51;;;;;;;;;15.00;14.00;;;;;-145.45;100.00;57426.63;5071073;27;45365;-71
2022/08/13 00:05:18;;;;;;;;;13.67;13.67;;;;;-145.45;100.00;57426.63;5097504;27;45528;-72
2022/08/13 00:07:43;;;;;;;;;16.67;16.67;;;;;-145.45;100.00;57426.63;5082164;27;45197;-72
2022/08/13 00:10:10;;;;;;;;;14.00;14.00;;;;;-145.45;100.00;57426.63;5091232;27;45307;-71
2022/08/13 00:15:32;;;;;;;;;13.67;12.33;;;;;-145.45;100.00;57426.63;5093199;27;45143;-71
2022/08/13 00:18:02;;;;;;;;;16.00;13.67;;;;;-145.45;100.00;57426.63;5081201;27;46550;-72
2022/08/13 00:20:38;;;;;;;;;15.00;14.33;;;;;-145.45;100.00;57426.63;5094163;27;45538;-72
2022/08/13 00:23:07;;;;;;;;;15.00;15.00;;;;;-145.45;100.00;57426.63;5098322;27;45185;-72
2022/08/13 00:25:33;;;;;;;;;13.00;11.00;;;;;-145.45;100.00;57426.63;5087748;27;45275;-71
2022/08/13 00:28:02;;;;;;;;;13.00;13.00;;;;;-145.45;100.00;57426.63;5091464;27;45367;-72
2022/08/13 00:30:31;;;;;;;;;13.00;13.00;;;;;-145.45;100.00;57426.63;5075660;27;45468;-72
2022/08/13 00:32:59;;;;;;;;;12.00;11.00;;;;;-145.45;100.00;57426.63;5081897;27;45237;-72
2022/08/13 00:35:25;;;;;;;;;18.00;11.33;;;;;-145.45;100.00;57426.63;5093018;27;45569;-71
2022/08/13 00:37:52;;;;;;;;;10.00;10.00;;;;;-145.45;100.00;57426.63;5072581;27;45405;-72
2022/08/13 00:40:18;;;;;;;;;14.67;13.33;;;;;-145.45;100.00;57426.63;5087601;27;45454;-71
2022/08/13 00:42:43;;;;;;;;;12.00;12.00;;;;;-145.45;100.00;57426.63;5081799;27;45273;-72
2022/08/13 00:45:09;;;;;;;;;11.00;11.00;;;;;-145.45;100.00;57426.63;5089300;27;45428;-71
2022/08/13 00:50:20;;;;;;;;;11.33;11.33;;;;;-145.45;100.00;57426.63;5098584;27;45395;-72
2022/08/13 00:52:46;;;;;;;;;11.00;9.67;;;;;-145.45;100.00;57426.63;5085117;27;45229;-72
2022/08/13 00:55:16;;;;;;;;;13.33;12.67;;;;;-145.45;100.00;57426.63;5087313;27;45240;-72
2022/08/13 00:57:44;;;;;;;;;15.00;12.67;;;;;-145.45;100.00;57426.63;5081060;27;45346;-71
2022/08/13 01:00:13;;;;;;;;;10.00;10.00;;;;;-145.45;100.00;57426.63;5094660;27;45340;-72
2022/08/13 01:02:41;;;;;;;;;10.33;10.00;;;;;-145.45;100.00;57426.63;5100383;27;45240;-72
2022/08/13 01:05:07;;;;;;;;;11.33;10.00;;;;;-145.45;100.00;57426.63;5086998;27;45471;-71
2022/08/13 01:07:35;;;;;;;;;9.67;9.67;;;;;-145.45;100.00;57426.63;5077261;27;46842;-72
2022/08/13 01:10:00;;;;;;;;;12.00;10.00;;;;;-145.45;100.00;57426.63;5097170;27;45288;-71
2022/08/13 01:12:27;;;;;;;;;12.67;9.67;;;;;-145.45;100.00;57426.63;5081212;27;45276;-72
2022/08/13 01:14:56;;;;;;;;;9.00;9.00;;;;;-145.45;100.00;57426.63;5092621;27;45606;-71
2022/08/13 01:17:23;;;;;;;;;8.67;7.00;;;;;-145.45;100.00;57426.63;5099045;27;46117;-72
2022/08/13 01:19:52;;;;;;;;;11.00;9.00;;;;;-145.45;100.00;57426.63;5097541;27;45312;-72
2022/08/13 01:22:19;;;;;;;;;10.00;10.00;;;;;-145.45;100.00;57426.63;5090360;27;45295;-72
2022/08/13 01:24:44;;;;;;;;;10.00;10.00;;;;;-145.45;100.00;57426.63;5090400;27;45303;-72
2022/08/13 01:27:10;;;;;;;;;8.00;8.00;;;;;-145.45;100.00;57426.63;5088513;27;46119;-72
2022/08/13 01:29:37;;;;;;;;;9.33;8.67;;;;;-145.45;100.00;57426.63;5090887;27;45269;-72
2022/08/13 01:32:05;;;;;;;;;9.67;9.00;;;;;-145.45;100.00;57426.63;5096057;27;45325;-72
2022/08/13 01:34:32;;;;;;;;;10.33;9.00;;;;;-145.45;100.00;57426.63;5075056;27;45578;-72
2022/08/13 01:36:57;;;;;;;;;11.00;9.33;;;;;-145.45;100.00;57426.63;5080788;27;45264;-71
2022/08/13 01:39:25;;;;;;;;;10.67;9.67;;;;;-145.45;100.00;57426.63;5088248;27;45430;-71
2022/08/13 01:41:50;;;;;;;;;10.67;9.67;;;;;-145.45;100.00;57426.63;5083459;27;45332;-72
2022/08/13 01:44:17;;;;;;;;;9.00;9.00;;;;;-145.45;100.00;57426.63;5074463;27;45913;-72
2022/08/13 01:52:12;;;;;;;;;10.00;9.00;;;;;-145.45;100.00;57426.63;5084008;27;45317;-72
2022/08/13 01:54:38;;;;;;;;;9.67;9.67;;;;;-145.45;100.00;57426.63;5085248;27;45456;-71
2022/08/13 01:57:07;;;;;;;;;8.00;8.00;;;;;-145.45;100.00;57426.63;5080554;27;46209;-72
2022/08/13 01:59:35;;;;;;;;;7.33;7.33;;;;;-145.45;100.00;57426.63;5084306;27;45418;-72
2022/08/13 02:02:03;;;;;;;;;9.00;8.00;;;;;-145.45;100.00;57426.63;5077220;27;45419;-72
2022/08/13 02:04:31;;;;;;;;;8.33;8.33;;;;;-145.45;100.00;57426.63;5087727;27;45282;-72
2022/08/13 02:06:59;;;;;;;;;9.00;9.00;;;;;-145.45;100.00;57426.63;5089841;27;45275;-72
2022/08/13 02:09:25;;;;;;;;;10.67;9.67;;;;;-145.45;100.00;57426.63;5097049;27;45367;-72
2022/08/13 02:11:51;;;;;;;;;10.67;10.67;;;;;-145.45;100.00;57426.63;5085010;27;45349;-71
2022/08/13 02:14:17;;;;;;;;;10.33;10.00;;;;;-145.45;100.00;57426.63;5097341;27;45581;-71
2022/08/13 02:16:42;;;;;;;;;12.33;12.00;;;;;-145.45;100.00;57426.63;5086735;27;47121;-71
2022/08/13 02:19:08;;;;;;;;;11.00;10.33;;;;;-145.45;100.00;57426.63;5089239;27;45369;-71
2022/08/13 02:21:36;;;;;;;;;12.00;10.67;;;;;-145.45;100.00;57426.63;5080138;27;45278;-71
2022/08/13 02:24:03;;;;;;;;;11.67;11.00;;;;;-145.45;100.00;57426.63;5073289;27;45277;-71
2022/08/13 02:26:31;;;;;;;;;11.67;11.33;;;;;-145.45;100.00;57426.63;5081688;27;45670;-71
2022/08/13 02:29:00;;;;;;;;;10.67;10.00;;;;;-145.45;100.00;57426.63;5087343;27;45312;-72
2022/08/13 02:31:28;;;;;;;;;12.00;11.67;;;;;-145.45;100.00;57426.63;5087136;27;45119;-72
2022/08/13 02:33:55;;;;;;;;;13.67;10.00;;;;;-145.45;100.00;57426.63;5087370;27;45469;-71
2022/08/13 02:36:22;;;;;;;;;11.00;10.00;;;;;-145.45;100.00;57426.63;5087118;27;45311;-72
2022/08/13 02:38:57;;;;;;;;;11.00;10.00;;;;;;;;5002741;27;45577;-71
2022/08/13 02:41:38;;;;;;;;;11.67;10.00;;;;;;;;5007379;27;45251;-71
2022/08/13 02:44:04;;;;;;;;;11.33;10.33;;;;;;;;5006103;27;45509;-71
2022/08/13 02:46:29;;;;;;;;;13.00;11.00;;;;;;;;5002741;27;45316;-71
2022/08/13 02:48:58;;;;;;;;;11.00;11.00;;;;;;;;5002152;27;45460;-71
2022/08/13 02:51:24;;;;;;;;;11.33;10.33;;;;;;;;5001039;27;45226;-71
2022/08/13 02:53:50;;;;;;;;;12.67;9.00;;;;;;;;5006121;27;45369;-71
2022/08/13 02:56:15;;;;;;;;;15.33;13.00;;;;;;;;4992718;27;45227;-71
2022/08/13 02:58:41;;;;;;;;;14.67;11.33;;;;;;;;5001979;27;48155;-71
2022/08/13 03:01:10;;;;;;;;;14.33;13.00;;;;;;;;4995067;27;45288;-71
2022/08/13 03:03:36;;;;;;;;;14.00;12.33;;;;;;;;4998135;27;45485;-71
2022/08/13 03:06:01;;;;;;;;;10.33;10.33;;;;;;;;4992816;27;45386;-71
2022/08/13 03:08:30;;;;;;;;;10.00;10.00;;;;;;;;4997738;27;45437;-71
2022/08/13 03:10:55;;;;;;;;;10.33;9.33;;;;;;;;4999030;27;45311;-71
2022/08/13 03:13:26;;;;;;;;;14.00;12.33;;;;;;;;5008662;27;45510;-71
2022/08/13 03:15:55;;;;;;;;;11.00;11.00;;;;;;;;5001392;27;45556;-72
2022/08/13 03:18:21;;;;;;;;;13.00;11.00;;;;;;;;5006857;27;46859;-71
2022/08/13 03:20:46;;;;;;;;;12.00;9.00;;;;;;;;5000351;27;45417;-71
2022/08/13 03:23:11;;;;;;;;;9.00;8.00;;;;;;;;4999793;27;45773;-71
2022/08/13 03:25:37;;;;;;;;;12.33;9.33;;;;;;;;4999170;27;45395;-71
2022/08/13 03:28:02;;;;;;;;;10.33;8.67;;;;;;;;5007111;27;46317;-71
2022/08/13 03:30:28;;;;;;;;;9.00;9.00;;;;;;;;5002042;27;45387;-71
2022/08/13 03:32:54;;;;;;;;;10.67;10.67;;;;;;;;5005235;27;45519;-71
2022/08/13 03:35:23;;;;;;;;;10.33;8.00;;;;;;;;5018001;27;45445;-71
2022/08/13 03:37:50;;;;;;;;;7.67;7.67;;;;;;;;5006796;27;46443;-72
2022/08/13 03:40:16;;;;;;;;;8.00;8.00;;;;;;;;5003058;27;45412;-72
2022/08/13 03:42:42;;;;;;;;;9.67;9.67;;;;;;;;4995475;27;45166;-71
2022/08/13 03:45:08;;;;;;;;;9.00;7.67;;;;;;;;4993698;27;45509;-72
2022/08/13 03:47:33;;;;;;;;;11.00;9.33;;;;;;;;5004384;27;45361;-71
2022/08/13 03:49:59;;;;;;;;;8.00;6.00;;;;;;;;4986095;27;45365;-72
2022/08/13 03:52:24;;;;;;;;;7.00;7.00;;;;;;;;4988257;27;45394;-71
2022/08/13 03:54:50;;;;;;;;;7.67;7.00;;;;;;;;4989913;28;45486;-72
2022/08/13 03:57:17;;;;;;;;;6.00;6.00;;;;;;;;4991386;27;45327;-72
2022/08/13 03:59:43;;;;;;;;;8.33;8.33;;;;;;;;4988194;27;45345;-72
2022/08/13 04:02:08;;;;;;;;;10.67;8.00;;;;;;;;4994654;27;45354;-71
2022/08/13 04:04:34;;;;;;;;;8.00;8.00;;;;;;;;4986499;27;45215;-71
2022/08/13 04:07:00;;;;;;;;;8.67;7.00;;;;;;;;4980285;27;45273;-72
2022/08/13 04:09:25;;;;;;;;;7.00;7.00;;;;;;;;4980843;27;45408;-72
2022/08/13 04:11:50;;;;;;;;;9.00;7.00;;;;;;;;4982906;28;45531;-72
2022/08/13 04:14:16;;;;;;;;;6.67;6.67;;;;;;;;4979563;28;45316;-72
2022/08/13 04:16:41;;;;;;;;;8.33;8.33;;;;;;;;4983818;27;45244;-72
2022/08/13 04:19:07;;;;;;;;;7.00;6.00;;;;;;;;4989730;27;45362;-71
2022/08/13 04:21:33;;;;;;;;;8.00;7.00;;;;;;;;4985263;27;45219;-71
2022/08/13 04:24:02;;;;;;;;;8.33;8.33;;;;;;;;4990777;27;45567;-72
2022/08/13 04:26:29;;;;;;;;;7.67;7.67;;;;;;;;4990760;27;45540;-72
2022/08/13 04:28:55;;;;;;;;;9.00;7.67;;;;;;;;4986649;27;45383;-72
2022/08/13 04:31:20;;;;;;;;;8.67;7.67;;;;;;;;4994703;27;45387;-72
2022/08/13 04:33:45;;;;;;;;;7.00;7.00;;;;;;;;4992821;27;45582;-72
2022/08/13 04:36:11;;;;;;;;;9.00;7.67;;;;;;;;4999576;27;45336;-71
2022/08/13 04:38:37;;;;;;;;;7.33;7.33;;;;;;;;4984536;27;45489;-71
2022/08/13 04:41:02;;;;;;;;;8.33;7.33;;;;;;;;4984929;27;45433;-71
2022/08/13 04:43:28;;;;;;;;;6.67;6.00;;;;;;;;4988719;27;45584;-71
2022/08/13 04:45:58;;;;;;;;;9.33;9.33;;;;;;;;4983275;28;46249;-71
2022/08/13 04:48:25;;;;;;;;;10.33;7.33;;;;;;;;4991054;27;45270;-71
2022/08/13 04:50:50;;;;;;;;;8.33;8.00;;;;;;;;4984717;27;45278;-71
2022/08/13 04:53:28;;;;;;;;;9.00;6.00;;;;;;;;4991795;28;45876;-71
2022/08/13 04:55:55;;;;;;;;;8.67;7.67;;;;;;;;4987631;27;45330;-71
2022/08/13 04:58:21;;;;;;;;;8.33;8.33;;;;;;;;4995403;28;45367;-71
2022/08/13 05:00:46;;;;;;;;;9.67;7.00;;;;;;;;4977983;27;45374;-71
2022/08/13 05:03:13;;;;;;;;;10.00;9.00;;;;;;;;4989719;27;45310;-71
2022/08/13 05:05:40;;;;;;;;;8.67;7.33;;;;;;;;4981869;27;45496;-71
2022/08/13 05:08:07;;;;;;;;;10.00;10.00;;;;;;;;4989845;28;45635;-71
2022/08/13 05:10:32;;;;;;;;;9.67;8.00;;;;;;;;4981268;28;45279;-71
2022/08/13 05:12:58;;;;;;;;;11.00;9.00;;;;;;;;4977953;28;45486;-71
2022/08/13 05:15:24;;;;;;;;;7.67;7.67;;;;;;;;4983719;28;45550;-71
2022/08/13 05:17:49;;;;;;;;;6.67;5.67;;;;;;;;4979736;27;45277;-71
2022/08/13 05:20:15;;;;;;;;;9.00;9.00;;;;;;;;4983660;27;45265;-71
2022/08/13 05:22:40;;;;;;;;;10.67;8.33;;;;;;;;4982029;28;45762;-71
2022/08/13 05:25:05;;;;;;;;;11.33;9.00;;;;;;;;4985660;27;45591;-71
2022/08/13 05:27:31;;;;;;;;;9.33;8.00;;;;;;;;4983836;28;45422;-71
2022/08/13 05:29:58;;;;;;;;;7.33;7.33;;;;;;;;4986981;28;45319;-71
2022/08/13 05:32:24;;;;;;;;;6.67;6.67;;;;;;;;4989650;27;45352;-71
2022/08/13 05:34:49;;;;;;;;;7.00;7.00;;;;;;;;5015416;27;46565;-71
2022/08/13 05:37:16;;;;;;;;;7.00;6.00;;;;;;;;4992186;27;45757;-71
2022/08/13 05:39:43;;;;;;;;;10.00;10.00;;;;;;;;4985062;27;45441;-74
2022/08/13 05:42:08;;;;;;;;;8.33;8.33;;;;;;;;4986764;28;45629;-70
2022/08/13 05:44:33;;;;;;;;;9.67;7.67;;;;;;;;4984967;28;45568;-72
2022/08/13 05:46:58;;;;;;;;;7.00;6.33;;;;;;;;4987489;27;45272;-72
2022/08/13 05:49:24;;;;;;;;;7.00;7.00;;;;;;;;4988055;28;45436;-72
2022/08/13 05:51:49;;;;;;;;;8.33;7.67;;;;;;;;4989037;28;45443;-72
2022/08/13 05:54:16;;;;;;;;;7.00;7.00;;;;;;;;4990202;28;45350;-71
2022/08/13 05:56:41;;;;;;;;;5.67;5.67;;;;;;;;4988638;28;45355;-72
2022/08/13 06:03:22;;;;;;;;;7.67;6.33;;;;;;;;4982654;27;45415;-73
2022/08/13 06:04:37;;;;;;;;;8.67;8.00;;;;;;;;4979794;27;45793;-72
2022/08/13 06:07:02;;;;;;;;;8.00;8.00;;;;;;;;4981886;27;45400;-71
2022/08/13 06:09:28;;;;;;;;;9.00;7.00;;;;;;;;4987140;27;45338;-70
2022/08/13 06:11:53;;;;;;;;;6.00;6.00;;;;;;;;4982708;27;45331;-72
2022/08/13 06:14:22;;;;;;;;;8.00;7.67;;;;;;;;4987578;28;45250;-71
2022/08/13 06:16:49;;;;;;;;;7.67;6.33;;;;;;;;4983772;27;45324;-71
2022/08/13 06:19:14;;;;;;;;;6.33;6.33;;;;;;;;4978558;27;45343;-70
2022/08/13 06:21:40;;;;;;;;;7.00;7.00;;;;;;;;4986135;27;45634;-71
2022/08/13 06:24:05;;;;;;;;;6.00;6.00;;;;;;;;4978138;28;46555;-70
2022/08/13 06:26:31;;;;;;;;;8.33;8.00;;;;;;;;4985992;28;45295;-71
2022/08/13 06:28:58;;;;;;;;;5.00;5.00;;;;;;;;4981025;28;45499;-71
2022/08/13 06:31:28;;;;;;;;;8.00;7.00;;;;;;;;4987509;28;45470;-71
2022/08/13 06:33:56;;;;;;;;;9.00;6.00;;;;;;;;4999746;27;46686;-69
2022/08/13 06:36:25;;;;;;;;;6.00;6.00;;;;;;;;4995670;27;45449;-71
2022/08/13 06:38:52;;;;;;;;;7.33;7.00;;;;;;;;4989919;27;45213;-72
2022/08/13 06:41:19;;;;;;;;;8.33;6.00;;;;;;;;4981735;27;45510;-72
2022/08/13 06:43:48;;;;;;;;;9.00;7.00;;;;;;;;4990000;27;45513;-72
2022/08/13 06:46:15;;;;;;;;;8.00;8.00;;;;;;;;4989840;28;45535;-72
2022/08/13 06:48:41;;;;;;;;;8.33;7.00;;;;;;;;4990554;28;45189;-73
2022/08/13 06:51:07;;;;;;;;;8.00;6.33;;;;;;;;4983938;28;45286;-74
2022/08/13 06:53:37;;;;;;;;;6.33;6.33;;;;;;;;4993643;28;45323;-73
2022/08/13 06:56:04;;;;;;;;;6.33;6.33;;;;;;;;4984816;28;45373;-72
2022/08/13 06:58:30;;;;;;;;;8.00;6.00;;;;;;;;4980174;28;45163;-72
2022/08/13 07:00:55;;;;;;;;;6.00;6.00;;;;;;;;4992093;27;46200;-72
2022/08/13 07:03:25;;;;;;;;;5.00;5.00;;;;;;;;4993408;27;45153;-72
2022/08/13 07:05:50;;;;;;;;;6.00;6.00;;;;;;;;4990465;27;45371;-72
2022/08/13 07:08:16;;;;;;;;;7.00;5.00;;;;;;;;4989580;28;48197;-72
2022/08/13 07:10:46;;;;;;;;;7.00;7.00;;;;;;;;4982808;27;45369;-72
2022/08/13 07:13:11;;;;;;;;;7.33;7.00;;;;;;;;4979886;27;47093;-72
2022/08/13 07:15:37;;;;;;;;;7.33;7.33;;;;;;;;4983607;27;45375;-72
2022/08/13 07:18:03;;;;;;;;;7.33;6.00;;;;;;;;4986321;28;45337;-72
2022/08/13 07:20:29;;;;;;;;;8.67;6.67;;;;;;;;4983078;28;45390;-72
2022/08/13 07:22:55;;;;;;;;;8.00;7.67;;;;;;;;4989628;28;46215;-72
2022/08/13 07:25:22;;;;;;;;;6.33;6.33;;;;;;;;4984223;27;45241;-73
2022/08/13 07:27:49;;;;;;;;;5.00;5.00;;;;;;;;4982247;28;45363;-72
2022/08/13 07:30:14;;;;;;;;;8.67;6.67;;;;;;;;4990006;27;45218;-72
2022/08/13 07:32:41;;;;;;;;;5.75;5.25;;;;;;;;4989848;27;48008;-71
2022/08/13 07:35:08;;;;;;;;;7.50;7.50;;;;;;;;5014458;27;45281;-72
2022/08/13 07:37:33;;;;;;;;;6.50;6.25;;;;;;;;4986764;27;45632;-71
2022/08/13 07:39:59;;;;;;;;;6.75;5.75;;;;;;;;4984776;28;45400;-71
2022/08/13 07:42:25;;;;;;;;;7.00;5.25;;;;;;;;4978867;27;45524;-71
2022/08/13 07:44:52;;;;;;;;;8.00;6.25;;;;;;;;4982982;28;45444;-72
2022/08/13 07:47:19;;;;;;;;;9.50;7.25;;;;;;;;4984341;27;45666;-72
2022/08/13 07:49:45;;;;;;;;;5.25;5.25;;;;;;;;4990894;27;45174;-72
2022/08/13 07:52:10;;;;;;;;;5.25;5.25;;;;;;;;4992774;27;45510;-72
2022/08/13 07:54:36;;;;;;;;;7.00;7.00;;;;;;;;4989574;28;45272;-72
2022/08/13 07:57:02;;;;;;;;;5.50;5.50;;;;;;;;4992769;27;45236;-71
2022/08/13 07:59:28;;;;;;;;;6.00;6.00;;;;;;;;4983355;28;45288;-72
2022/08/13 08:01:54;;;;;;;;;7.50;6.00;;;;;;;;4981645;28;45543;-72
2022/08/13 08:04:20;;;;;;;;;6.00;6.00;;;;;;;;4985780;27;45518;-71
2022/08/13 08:06:47;;;;;;;;;6.00;5.25;;;;;;;;4986682;28;45371;-72
2022/08/13 08:09:20;;;;;;;;;6.75;5.25;;;;;;;;4986687;27;45350;-73
2022/08/13 08:14:30;;;;;;;;;4.80;4.80;;;;;;;;4988897;27;45368;-72
2022/08/13 08:16:56;;;;;;;;;7.75;5.25;;;;;;;;4988876;28;45456;-72
2022/08/13 08:19:21;;;;;;;;;4.75;4.75;;;;;;;;4990461;28;45426;-71
2022/08/13 08:21:47;;;;;;;;;8.75;6.25;;;;;;;;4989058;27;46103;-71
2022/08/13 08:24:13;;;;;;;;;7.00;7.00;;;;;;;;4990975;27;48007;-69
2022/08/13 08:26:39;;;;;;;;;6.00;6.00;;;;;;;;4984687;27;45323;-70
2022/08/13 08:29:09;;;;;;;;;4.80;4.40;;;;;;;;4990928;27;45728;-71
2022/08/13 08:31:38;;;;;;;;;7.00;4.00;;;;;;;;4990558;28;45353;-69
2022/08/13 08:34:03;;;;;;;;;5.20;5.20;;;;;;;;5000592;27;45309;-68
2022/08/13 08:36:29;;;;;;;;;4.25;4.25;;;;;;;;4991788;27;45326;-71
2022/08/13 08:44:24;;;;;;;;;7.00;5.20;;;;;;;;4986267;27;45441;-71
2022/08/13 08:46:56;;;;;;;;;5.50;5.50;;;;;;;;4991958;27;45206;-71
2022/08/13 08:49:22;;;;;;;;;4.20;4.20;;;;;;;;4985565;27;45443;-71
2022/08/13 08:51:49;;;;;;;;;5.75;5.75;;;;;;;;4989119;27;45816;-71
2022/08/13 08:54:14;;;;;;;;;3.40;3.40;;;;;;;;4991277;27;45305;-71
2022/08/13 08:56:41;;;;;;;;;4.75;4.75;;;;;;;;4989464;27;45162;-68
2022/08/13 08:59:07;;;;;;;;;4.20;3.80;;;;;;;;4990028;27;45997;-71
2022/08/13 09:01:33;;;;;;;;;6.00;3.40;;;;;;;;4978497;28;46214;-70
2022/08/13 09:04:00;;;;;;;;;5.00;5.00;;;;;;;;4989965;27;45482;-70
2022/08/13 09:06:28;;;;;;;;;7.60;5.00;;;;;;;;4988852;27;45381;-70
2022/08/13 09:08:53;;;;;;;;;3.60;3.60;;;;;;;;4991416;27;45423;-71
2022/08/13 09:11:19;;;;;;;;;4.75;4.75;;;;;;;;4983721;27;46226;-71
2022/08/13 09:13:47;;;;;;;;;6.20;6.00;;;;;;;;4991337;27;45624;-71
2022/08/13 09:16:13;;;;;;;;;5.40;4.60;;;;;;;;4984270;27;45282;-71
2022/08/13 09:18:38;;;;;;;;;3.25;3.25;;;;;;;;4986444;28;45513;-71
2022/08/13 09:21:03;;;;;;;;;4.00;4.00;;;;;;;;4982167;28;46241;-71
2022/08/13 09:23:32;;;;;;;;;3.00;2.25;;;;;;;;4993666;27;45275;-71
2022/08/13 09:25:58;;;;;;;;;2.20;2.20;;;;;;;;4985213;27;45453;-71
2022/08/13 09:28:23;;;;;;;;;6.00;5.25;;;;;;;;4991390;28;45284;-69
2022/08/13 09:30:53;;;;;;;;;6.50;4.00;;;;;;;;4985966;28;45410;-71
2022/08/13 09:33:19;;;;;;;;;5.00;5.00;;;;;;;;4993940;28;45552;-71
2022/08/13 09:35:46;;;;;;;;;4.80;4.00;;;;;;;;4989814;27;45350;-71
2022/08/13 09:38:11;;;;;;;;;4.20;4.20;;;;;;;;4977902;28;45458;-69
2022/08/13 09:40:44;;;;;;;;;5.50;5.00;;;;;;;;4991260;27;46461;-71
2022/08/13 09:43:19;;;;;;;;;4.80;4.80;;;;;;;;4980121;27;45318;-71
2022/08/13 09:45:45;;;;;;;;;4.20;3.60;;;;;;;;4982622;28;45398;-71
2022/08/13 09:48:10;;;;;;;;;6.00;4.25;;;;;;;;4983531;28;45538;-71
2022/08/13 09:50:39;;;;;;;;;4.00;4.00;;;;;;;;4982816;27;45457;-72
2022/08/13 09:53:05;;;;;;;;;4.20;4.20;;;;;;;;4987366;27;45521;-71
2022/08/13 09:55:30;;;;;;;;;2.75;2.75;;;;;;;;4985041;27;45424;-69
2022/08/13 09:57:59;;;;;;;;;3.25;3.25;;;;;;;;4991424;28;45418;-68
2022/08/13 10:00:27;;;;;;;;;4.60;3.80;;;;;;;;4979250;27;45410;-69
2022/08/13 10:02:56;;;;;;;;;6.00;5.60;;;;;;;;4993590;27;45583;-68
2022/08/13 10:05:21;;;;;;;;;8.00;5.20;;;;;;;;4982431;27;45222;-69
2022/08/13 10:07:46;;;;;;;;;7.00;5.00;;;;;;;;4984933;28;46031;-72
2022/08/13 10:10:12;;;;;;;;;3.00;3.00;;;;;;;;4988031;27;45582;-71
2022/08/13 10:12:38;;;;;;;;;5.20;4.20;;;;;;;;4985115;28;45202;-71
2022/08/13 10:15:03;;;;;;;;;4.00;4.00;;;;;;;;4983524;28;45729;-71
2022/08/13 10:17:42;;;;;;;;;2.75;2.25;;;;;;;;4986711;27;45370;-72
2022/08/13 10:20:08;;;;;;;;;3.40;3.40;;;;;;;;4985191;28;46564;-72
2022/08/13 10:22:33;;;;;;;;;3.80;3.80;;;;;;;;4988021;28;45308;-71
2022/08/13 10:24:59;;;;;;;;;7.00;7.00;;;;;;;;4988543;27;45378;-74
2022/08/13 10:27:25;;;;;;;;;2.50;2.50;;;;;;;;4978016;28;45482;-70
2022/08/13 10:29:50;;;;;;;;;5.50;3.75;;;;;;;;4983868;27;47112;-69
2022/08/13 10:32:15;;;;;;;;;4.25;3.25;;;;;;;;4985763;27;45351;-70
2022/08/13 10:34:43;;;;;;;;;3.50;3.50;;;;;;;;4990422;27;45244;-71
2022/08/13 10:37:08;;;;;;;;;2.60;2.60;;;;;;;;4985851;27;46425;-71
2022/08/13 10:39:33;;;;;;;;;3.00;3.00;;;;;;;;4985612;28;46515;-70
2022/08/13 10:42:00;;;;;;;;;3.25;3.25;;;;;;;;4985014;27;45198;-70
2022/08/13 10:44:25;;;;;;;;;2.20;2.20;;;;;;;;4988256;28;45339;-70
2022/08/13 10:46:51;;;;;;;;;3.25;3.25;;;;;;;;4994876;28;45837;-70
2022/08/13 10:49:16;;;;;;;;;4.00;4.00;;;;;;;;4989998;28;45477;-69
2022/08/13 10:51:41;;;;;;;;;4.50;3.50;;;;;;;;4986592;28;45459;-67
2022/08/13 10:54:07;;;;;;;;;1.50;1.50;;;;;;;;4989528;28;45355;-68
2022/08/13 10:56:33;;;;;;;;;1.75;1.75;;;;;;;;4993937;28;45271;-68
2022/08/13 10:59:00;;;;;;;;;0.75;0.75;;;;;;;;4990235;28;47239;-67
2022/08/13 11:01:26;;;;;;;;;3.80;3.80;;;;;;;;4990289;28;45437;-67
2022/08/13 11:03:53;;;;;;;;;2.60;2.60;;;;;;;;4982843;28;45480;-67
2022/08/13 11:06:18;;;;;;;;;4.60;4.60;;;;;;;;4992516;27;47276;-67
2022/08/13 11:08:44;;;;;;;;;3.00;3.00;;;;;;;;4993808;27;45938;-67
2022/08/13 11:11:10;;;;;;;;;3.40;3.40;;;;;;;;4998969;27;45502;-68
2022/08/13 11:13:39;;;;;;;;;4.75;4.75;;;;;;;;4995578;27;45795;-67
2022/08/13 11:16:06;;;;;;;;;4.80;4.80;;;;;;;;4996673;28;45412;-67
2022/08/13 11:18:32;;;;;;;;;3.20;3.20;;;;;;;;4995224;28;46390;-67
2022/08/13 11:21:03;;;;;;;;;4.60;4.60;;;;;;;;4993074;28;45177;-68
2022/08/13 11:23:29;;;;;;;;;4.00;4.00;;;;;;;;4994375;27;45471;-68
2022/08/13 11:25:54;;;;;;;;;3.00;3.00;;;;;;;;4993042;28;45310;-67
2022/08/13 11:28:19;;;;;;;;;3.50;3.50;;;;;;;;4996510;28;45754;-67
2022/08/13 11:30:45;;;;;;;;;4.00;4.00;;;;;;;;4993181;27;45423;-68
2022/08/13 11:33:10;;;;;;;;;3.00;3.00;;;;;;;;4997300;28;45425;-69
2022/08/13 11:35:35;;;;;;;;;4.25;3.00;;;;;;;;4984872;27;45642;-69
2022/08/13 11:38:11;;;;;;;;;2.50;2.50;;;;;;;;4997696;28;45491;-68
2022/08/13 11:40:36;;;;;;;;;5.00;4.00;;;;;;;;4991138;27;45309;-68
2022/08/13 11:43:02;;;;;;;;;3.00;3.00;;;;;;;;4995416;28;45220;-68
2022/08/13 11:45:27;;;;;;;;;3.00;3.00;;;;;;;;4990962;28;45707;-68
2022/08/13 11:47:52;;;;;;;;;1.00;1.00;;;;;;;;4997858;28;46680;-68
2022/08/13 11:50:18;;;;;;;;;2.00;2.00;;;;;;;;4991757;28;45151;-68
2022/08/13 11:52:43;;;;;;;;;3.00;1.75;;;;;;;;4997944;28;45264;-68
2022/08/13 11:55:08;;;;;;;;;1.50;1.50;;;;;;;;4990814;28;45528;-68
2022/08/13 11:57:34;;;;;;;;;3.00;2.00;;;;;;;;4980660;28;48324;-68
2022/08/13 11:59:59;;;;;;;;;4.50;2.25;;;;;;;;4987294;28;45506;-68
2022/08/13 12:02:25;;;;;;;;;3.50;2.75;;;;;;;;4982246;28;45374;-68
2022/08/13 12:04:50;;;;;;;;;3.40;1.40;;;;;;;;4984581;28;45553;-68
2022/08/13 12:07:15;;;;;;;;;2.25;2.25;;;;;;;;4997235;28;45386;-69
2022/08/13 12:09:41;;;;;;;;;3.00;1.75;;;;;;;;4989324;28;45369;-69
2022/08/13 12:12:06;;;;;;;;;3.00;2.00;;;;;;;;4997284;28;45296;-68
2022/08/13 12:14:31;;;;;;;;;2.00;2.00;;;;;;;;4990101;27;45779;-68
2022/08/13 12:16:57;;;;;;;;;1.75;1.75;;;;;;;;4996967;28;45355;-68
2022/08/13 12:19:22;;;;;;;;;2.00;2.00;;;;;;;;4986180;27;45478;-68
2022/08/13 12:21:47;;;;;;;;;3.00;2.75;;;;;;;;4996557;27;45575;-68
2022/08/13 12:24:12;;;;;;;;;3.50;2.25;;;;;;;;4987702;27;45683;-69
2022/08/13 12:26:37;;;;;;;;;2.00;2.00;;;;;;;;4993578;27;45387;-68
2022/08/13 12:29:03;;;;;;;;;4.00;2.50;;;;;;;;4992245;28;45475;-68
2022/08/13 12:31:28;;;;;;;;;2.75;2.75;;;;;;;;4995263;28;45435;-68
2022/08/13 12:33:53;;;;;;;;;2.00;2.00;;;;;;;;4996433;27;45536;-68
2022/08/13 12:36:18;;;;;;;;;1.50;1.50;;;;;;;;4987679;28;46626;-68
2022/08/13 12:38:44;;;;;;;;;2.25;2.25;;;;;;;;4992900;28;45424;-68
2022/08/13 12:41:09;;;;;;;;;2.80;2.80;;;;;;;;4983020;27;45464;-68
2022/08/13 12:43:35;;;;;;;;;2.00;2.00;;;;;;;;4989185;27;45356;-68
2022/08/13 12:46:00;;;;;;;;;3.50;2.00;;;;;;;;4985444;27;45588;-69
2022/08/13 12:48:28;;;;;;;;;3.00;2.00;;;;;;;;4980847;28;45548;-68
2022/08/13 12:50:53;;;;;;;;;1.60;1.60;;;;;;;;4985463;27;45382;-68
2022/08/13 12:53:18;;;;;;;;;1.00;1.00;;;;;;;;4987143;28;45360;-68
2022/08/13 12:55:46;;;;;;;;;2.25;2.25;;;;;;;;4983667;28;45471;-68
2022/08/13 12:58:14;;;;;;;;;3.00;2.00;;;;;;;;4980899;28;45426;-68
2022/08/13 13:00:40;;;;;;;;;1.20;1.20;;;;;;;;4989024;28;45340;-68
2022/08/13 13:03:05;;;;;;;;;0.00;0.00;;;;;;;;4985491;27;45347;-69
2022/08/13 13:05:31;;;;;;;;;2.00;2.00;;;;;;;;4981218;28;46449;-67
2022/08/13 13:07:57;;;;;;;;;1.75;1.75;;;;;;;;4987600;27;45366;-68
2022/08/13 13:10:22;;;;;;;;;2.00;2.00;;;;;;;;4984255;28;45310;-69
2022/08/13 13:12:47;;;;;;;;;4.00;2.00;;;;;;;;4996202;28;45355;-69
2022/08/13 13:15:12;;;;;;;;;1.00;1.00;;;;;;;;4994764;28;46998;-69
2022/08/13 13:17:38;;;;;;;;;0.50;0.00;;;;;;;;4993724;27;46315;-68
2022/08/13 13:20:04;;;;;;;;;3.60;2.40;;;;;;;;4987961;27;45232;-69
2022/08/13 13:22:29;;;;;;;;;1.00;1.00;;;;;;;;4985111;28;46206;-68
2022/08/13 13:24:55;;;;;;;;;0.00;0.00;;;;;;;;4987407;27;45558;-68
2022/08/13 13:27:21;;;;;;;;;0.75;0.75;;;;;;;;4995105;28;45383;-68
2022/08/13 13:29:47;;;;;;;;;1.00;1.00;;;;;;;;4991292;28;45254;-68
2022/08/13 13:32:13;;;;;;;;;1.50;1.50;;;;;;;;4995745;28;45241;-68
2022/08/13 13:34:38;;;;;;;;;1.20;1.20;;;;;;;;4994076;27;45422;-68
2022/08/13 13:37:03;;;;;;;;;1.00;1.00;;;;;;;;4978590;28;45485;-68
2022/08/13 13:39:29;;;;;;;;;1.00;1.00;;;;;;;;4984215;27;45333;-68
2022/08/13 13:41:54;;;;;;;;;1.00;1.00;;;;;;;;4980643;28;45312;-68
2022/08/13 13:44:19;;;;;;;;;1.00;1.00;;;;;;;;4986529;28;45474;-68
2022/08/13 13:46:44;;;;;;;;;1.00;1.00;;;;;;;;4982618;27;45351;-68
2022/08/13 13:49:09;;;;;;;;;1.50;1.00;;;;;;;;4990745;27;45426;-69
2022/08/13 13:51:35;;;;;;;;;1.00;1.00;;;;;;;;4992486;27;45563;-68
2022/08/13 13:54:00;;;;;;;;;1.25;1.25;;;;;;;;4991366;28;45289;-68
2022/08/13 13:56:25;;;;;;;;;1.00;1.00;;;;;;;;4982878;27;45276;-69
2022/08/13 13:58:54;;;;;;;;;2.00;2.00;;;;;;;;4984707;28;45524;-68
2022/08/13 14:01:20;;;;;;;;;2.00;2.00;;;;;;;;4978935;27;45287;-68
2022/08/13 14:03:45;;;;;;;;;1.00;1.00;;;;;;;;4984502;28;46255;-68
2022/08/13 14:06:17;;;;;;;;;2.00;2.00;;;;;;;;4979989;28;45351;-70
2022/08/13 14:08:43;;;;;;;;;1.00;1.00;;;;;;;;4988098;28;45190;-71